sensor_id;sensor_type;location;lat;lon;timestamp;pressure;altitude;pressure_sealevel;temperature;humidity
54850;BME280;47660;51.334;12.396;2022-12-11T00:01:18;99676.91;;;1.01;100.00
54850;BME280;47660;51.334;12.396;2022-12-11T00:03:45;99673.25;;;1.05;100.00
54850;BME280;47660;51.334;12.396;2022-12-11T00:06:13;99672.34;;;1.06;100.00
54850;BME280;47660;51.334;12.396;2022-12-11T00:08:39;99677.91;;;0.97;100.00
54850;BME280;47660;51.334;12.396;2022-12-11T00:11:07;99668.72;;;1.10;100.00
54850;BME280;47660;51.334;12.396;2022-12-11T00:13:34;99665.63;;;0.99;100.00
54850;BME280;47660;51.334;12.396;2022-12-11T00:16:09;99670.66;;;1.05;100.00
54850;BME280;47660;51.334;12.396;2022-12-11T00:18:37;99677.81;;;1.00;100.00
54850;BME280;47660;51.334;12.396;2022-12-11T00:21:04;99673.56;;;0.96;100.00
54850;BME280;47660;51.334;12.396;2022-12-11T00:23:34;99666.31;;;1.04;100.00
54850;BME280;47660;51.334;12.396;2022-12-11T00:26:06;99670.44;;;1.11;100.00
54850;BME280;47660;51.334;12.396;2022-12-11T00:28:32;99671.59;;;1.02;100.00
54850;BME280;47660;51.334;12.396;2022-12-11T00:30:58;99675.88;;;1.05;100.00
54850;BME280;47660;51.334;12.396;2022-12-11T00:33:25;99662.13;;;0.98;100.00
54850;BME280;47660;51.334;12.396;2022-12-11T00:35:51;99667.22;;;1.03;100.00
54850;BME280;47660;51.334;12.396;2022-12-11T00:38:20;99673.56;;;0.96;100.00
54850;BME280;47660;51.334;12.396;2022-12-11T00:40:46;99669.44;;;0.90;100.00
54850;BME280;47660;51.334;12.396;2022-12-11T00:43:12;99671.16;;;0.89;100.00
54850;BME280;47660;51.334;12.396;2022-12-11T00:45:42;99667.38;;;0.98;100.00
54850;BME280;47660;51.334;12.396;2022-12-11T00:48:08;99661.19;;;1.01;100.00
54850;BME280;47660;51.334;12.396;2022-12-11T00:50:33;99666.91;;;1.12;100.00
54850;BME280;47660;51.334;12.396;2022-12-11T00:53:01;99670.06;;;0.97;100.00
54850;BME280;47660;51.334;12.396;2022-12-11T00:55:27;99675.28;;;0.97;100.00
54850;BME280;47660;51.334;12.396;2022-12-11T00:57:54;99670.91;;;0.72;100.00
54850;BME280;47660;51.334;12.396;2022-12-11T01:00:20;99676.69;;;1.07;100.00
54850;BME280;47660;51.334;12.396;2022-12-11T01:02:47;99677.53;;;1.08;100.00
54850;BME280;47660;51.334;12.396;2022-12-11T01:05:12;99668.94;;;1.04;100.00
54850;BME280;47660;51.334;12.396;2022-12-11T01:07:37;99670.84;;;1.24;100.00
54850;BME280;47660;51.334;12.396;2022-12-11T01:10:03;99671.97;;;0.92;100.00
54850;BME280;47660;51.334;12.396;2022-12-11T01:13:00;99671.47;;;1.06;100.00
54850;BME280;47660;51.334;12.396;2022-12-11T01:15:28;99680.00;;;1.12;100.00
54850;BME280;47660;51.334;12.396;2022-12-11T01:17:55;99678.59;;;1.02;100.00
54850;BME280;47660;51.334;12.396;2022-12-11T01:20:22;99679.13;;;1.12;100.00
54850;BME280;47660;51.334;12.396;2022-12-11T01:22:52;99677.09;;;1.20;100.00
54850;BME280;47660;51.334;12.396;2022-12-11T01:25:20;99682.59;;;1.12;100.00
54850;BME280;47660;51.334;12.396;2022-12-11T01:27:49;99681.69;;;1.13;100.00
54850;BME280;47660;51.334;12.396;2022-12-11T01:30:15;99684.03;;;0.96;100.00
54850;BME280;47660;51.334;12.396;2022-12-11T01:32:41;99686.13;;;0.86;100.00
54850;BME280;47660;51.334;12.396;2022-12-11T01:35:06;99686.06;;;1.13;100.00
54850;BME280;47660;51.334;12.396;2022-12-11T01:37:32;99683.88;;;0.48;100.00
54850;BME280;47660;51.334;12.396;2022-12-11T01:39:58;99689.59;;;0.86;100.00
54850;BME280;47660;51.334;12.396;2022-12-11T01:42:26;99692.69;;;0.98;100.00
54850;BME280;47660;51.334;12.396;2022-12-11T01:48:03;99683.22;;;0.95;100.00
54850;BME280;47660;51.334;12.396;2022-12-11T01:50:32;99694.50;;;0.96;100.00
54850;BME280;47660;51.334;12.396;2022-12-11T01:52:59;99695.03;;;0.80;100.00
54850;BME280;47660;51.334;12.396;2022-12-11T01:55:25;99700.81;;;0.90;100.00
54850;BME280;47660;51.334;12.396;2022-12-11T01:57:51;99695.41;;;0.95;100.00
54850;BME280;47660;51.334;12.396;2022-12-11T02:00:17;99685.06;;;0.92;100.00
54850;BME280;47660;51.334;12.396;2022-12-11T02:02:44;99689.88;;;1.04;100.00
54850;BME280;47660;51.334;12.396;2022-12-11T02:05:10;99682.31;;;0.96;100.00
54850;BME280;47660;51.334;12.396;2022-12-11T02:07:48;99685.84;;;0.94;100.00
54850;BME280;47660;51.334;12.396;2022-12-11T02:10:15;99680.63;;;0.94;100.00
54850;BME280;47660;51.334;12.396;2022-12-11T02:12:55;99683.97;;;0.97;100.00
54850;BME280;47660;51.334;12.396;2022-12-11T02:15:31;99683.78;;;1.03;100.00
54850;BME280;47660;51.334;12.396;2022-12-11T02:20:54;99683.78;;;1.03;100.00
54850;BME280;47660;51.334;12.396;2022-12-11T02:23:46;99688.03;;;0.81;100.00
54850;BME280;47660;51.334;12.396;2022-12-11T02:28:48;99678.13;;;0.91;100.00
54850;BME280;47660;51.334;12.396;2022-12-11T02:34:10;99684.34;;;1.12;100.00
54850;BME280;47660;51.334;12.396;2022-12-11T02:36:39;99683.66;;;1.07;100.00
54850;BME280;47660;51.334;12.396;2022-12-11T02:39:08;99680.41;;;1.00;100.00
54850;BME280;47660;51.334;12.396;2022-12-11T02:41:39;99676.91;;;1.01;100.00
54850;BME280;47660;51.334;12.396;2022-12-11T02:44:09;99677.06;;;0.96;100.00
54850;BME280;47660;51.334;12.396;2022-12-11T02:46:36;99679.63;;;0.98;100.00
54850;BME280;47660;51.334;12.396;2022-12-11T02:49:04;99674.78;;;0.85;100.00
54850;BME280;47660;51.334;12.396;2022-12-11T02:51:35;99672.03;;;0.65;100.00
54850;BME280;47660;51.334;12.396;2022-12-11T02:54:04;99679.94;;;0.88;100.00
54850;BME280;47660;51.334;12.396;2022-12-11T02:56:45;99683.06;;;0.98;100.00
54850;BME280;47660;51.334;12.396;2022-12-11T02:59:29;99684.63;;;1.04;100.00
54850;BME280;47660;51.334;12.396;2022-12-11T03:01:56;99682.59;;;0.87;100.00
54850;BME280;47660;51.334;12.396;2022-12-11T03:04:24;99678.13;;;0.91;100.00
54850;BME280;47660;51.334;12.396;2022-12-11T03:06:52;99683.22;;;0.95;100.00
54850;BME280;47660;51.334;12.396;2022-12-11T03:09:19;99673.06;;;1.11;100.00
54850;BME280;47660;51.334;12.396;2022-12-11T03:11:45;99672.03;;;1.15;100.00
54850;BME280;47660;51.334;12.396;2022-12-11T03:14:11;99673.19;;;1.07;100.00
54850;BME280;47660;51.334;12.396;2022-12-11T03:16:51;99667.72;;;1.14;100.00
54850;BME280;47660;51.334;12.396;2022-12-11T03:22:37;99673.16;;;1.08;100.00
54850;BME280;47660;51.334;12.396;2022-12-11T03:30:37;99654.03;;;0.81;100.00
54850;BME280;47660;51.334;12.396;2022-12-11T03:33:18;99649.84;;;1.00;100.00
54850;BME280;47660;51.334;12.396;2022-12-11T03:36:00;99652.25;;;1.07;100.00
54850;BME280;47660;51.334;12.396;2022-12-11T03:38:36;99644.31;;;1.10;100.00
54850;BME280;47660;51.334;12.396;2022-12-11T03:41:06;99658.56;;;1.01;100.00
54850;BME280;47660;51.334;12.396;2022-12-11T03:43:34;99649.28;;;0.67;100.00
54850;BME280;47660;51.334;12.396;2022-12-11T03:46:00;99654.75;;;0.59;100.00
54850;BME280;47660;51.334;12.396;2022-12-11T03:48:30;99650.63;;;0.79;100.00
54850;BME280;47660;51.334;12.396;2022-12-11T03:50:59;99653.66;;;0.92;100.00
54850;BME280;47660;51.334;12.396;2022-12-11T03:53:26;99653.38;;;0.74;100.00
54850;BME280;47660;51.334;12.396;2022-12-11T03:55:53;99659.38;;;0.78;100.00
54850;BME280;47660;51.334;12.396;2022-12-11T03:58:19;99665.34;;;0.81;100.00
54850;BME280;47660;51.334;12.396;2022-12-11T04:00:45;99657.47;;;0.83;100.00
54850;BME280;47660;51.334;12.396;2022-12-11T04:03:15;99664.81;;;0.97;100.00
54850;BME280;47660;51.334;12.396;2022-12-11T04:05:47;99664.72;;;1.00;100.00
54850;BME280;47660;51.334;12.396;2022-12-11T04:08:14;99659.38;;;0.78;100.00
54850;BME280;47660;51.334;12.396;2022-12-11T04:10:42;99656.59;;;0.82;100.00
54850;BME280;47660;51.334;12.396;2022-12-11T04:13:09;99665.78;;;0.94;100.00
54850;BME280;47660;51.334;12.396;2022-12-11T04:15:35;99661.50;;;0.66;100.00
54850;BME280;47660;51.334;12.396;2022-12-11T04:18:01;99660.31;;;0.75;100.00
54850;BME280;47660;51.334;12.396;2022-12-11T04:20:45;99661.50;;;0.66;100.00
54850;BME280;47660;51.334;12.396;2022-12-11T04:23:29;99667.91;;;0.57;100.00
54850;BME280;47660;51.334;12.396;2022-12-11T04:26:15;99673.25;;;0.53;100.00
54850;BME280;47660;51.334;12.396;2022-12-11T04:28:42;99658.38;;;0.55;100.00
54850;BME280;47660;51.334;12.396;2022-12-11T04:31:19;99657.66;;;0.77;100.00
54850;BME280;47660;51.334;12.396;2022-12-11T04:33:45;99664.31;;;0.60;100.00
54850;BME280;47660;51.334;12.396;2022-12-11T04:36:11;99661.66;;;0.62;100.00
54850;BME280;47660;51.334;12.396;2022-12-11T04:38:37;99662.16;;;0.46;100.00
54850;BME280;47660;51.334;12.396;2022-12-11T04:41:06;99656.97;;;0.71;100.00
54850;BME280;47660;51.334;12.396;2022-12-11T04:43:31;99655.06;;;0.50;100.00
54850;BME280;47660;51.334;12.396;2022-12-11T04:46:14;99665.13;;;0.62;100.00
54850;BME280;47660;51.334;12.396;2022-12-11T04:48:40;99657.97;;;0.67;100.00
54850;BME280;47660;51.334;12.396;2022-12-11T04:51:06;99664.97;;;0.67;100.00
54850;BME280;47660;51.334;12.396;2022-12-11T04:53:33;99655.72;;;0.56;100.00
54850;BME280;47660;51.334;12.396;2022-12-11T04:55:59;99652.31;;;0.54;100.00
54850;BME280;47660;51.334;12.396;2022-12-11T04:58:25;99654.97;;;0.53;100.00
54850;BME280;47660;51.334;12.396;2022-12-11T05:00:51;99654.41;;;0.70;100.00
54850;BME280;47660;51.334;12.396;2022-12-11T05:03:19;99654.44;;;0.68;100.00
54850;BME280;47660;51.334;12.396;2022-12-11T05:05:49;99650.09;;;0.69;100.00
54850;BME280;47660;51.334;12.396;2022-12-11T05:08:16;99653.13;;;0.56;100.00
54850;BME280;47660;51.334;12.396;2022-12-11T05:10:44;99652.72;;;0.42;100.00
54850;BME280;47660;51.334;12.396;2022-12-11T05:13:09;99650.66;;;0.25;100.00
54850;BME280;47660;51.334;12.396;2022-12-11T05:15:38;99649.78;;;0.51;100.00
54850;BME280;47660;51.334;12.396;2022-12-11T05:18:04;99651.66;;;0.21;100.00
54850;BME280;47660;51.334;12.396;2022-12-11T05:20:29;99648.03;;;-0.02;100.00
54850;BME280;47660;51.334;12.396;2022-12-11T05:22:55;99651.81;;;0.43;100.00
54850;BME280;47660;51.334;12.396;2022-12-11T05:25:20;99647.78;;;0.33;100.00
54850;BME280;47660;51.334;12.396;2022-12-11T05:27:45;99644.28;;;0.59;100.00
54850;BME280;47660;51.334;12.396;2022-12-11T05:30:11;99644.50;;;-0.01;100.00
54850;BME280;47660;51.334;12.396;2022-12-11T05:32:38;99636.63;;;0.54;100.00
54850;BME280;47660;51.334;12.396;2022-12-11T05:35:11;99640.69;;;0.63;100.00
54850;BME280;47660;51.334;12.396;2022-12-11T05:37:36;99637.34;;;0.04;100.00
54850;BME280;47660;51.334;12.396;2022-12-11T05:40:02;99631.41;;;0.53;100.00
54850;BME280;47660;51.334;12.396;2022-12-11T05:42:30;99629.31;;;0.64;100.00
54850;BME280;47660;51.334;12.396;2022-12-11T05:44:58;99628.59;;;0.59;100.00
54850;BME280;47660;51.334;12.396;2022-12-11T05:47:23;99625.19;;;0.57;100.00
54850;BME280;47660;51.334;12.396;2022-12-11T05:49:49;99625.34;;;0.52;100.00
54850;BME280;47660;51.334;12.396;2022-12-11T05:52:15;99627.75;;;0.32;100.00
54850;BME280;47660;51.334;12.396;2022-12-11T05:54:43;99633.41;;;0.46;100.00
54850;BME280;47660;51.334;12.396;2022-12-11T05:57:08;99624.16;;;0.36;100.00
54850;BME280;47660;51.334;12.396;2022-12-11T05:59:34;99623.97;;;0.15;100.00
54850;BME280;47660;51.334;12.396;2022-12-11T06:01:59;99628.56;;;0.07;100.00
54850;BME280;47660;51.334;12.396;2022-12-11T06:04:25;99631.53;;;-0.04;100.00
54850;BME280;47660;51.334;12.396;2022-12-11T06:06:53;99627.53;;;0.39;100.00
54850;BME280;47660;51.334;12.396;2022-12-11T06:09:19;99617.28;;;0.33;100.00
54850;BME280;47660;51.334;12.396;2022-12-11T06:11:47;99618.38;;;0.26;100.00
54850;BME280;47660;51.334;12.396;2022-12-11T06:14:12;99631.75;;;-0.12;100.00
54850;BME280;47660;51.334;12.396;2022-12-11T06:16:38;99632.44;;;0.22;100.00
54850;BME280;47660;51.334;12.396;2022-12-11T06:19:04;99636.56;;;0.29;100.00
54850;BME280;47660;51.334;12.396;2022-12-11T06:21:31;99635.84;;;0.51;100.00
54850;BME280;47660;51.334;12.396;2022-12-11T06:24:00;99629.03;;;0.47;100.00
54850;BME280;47660;51.334;12.396;2022-12-11T06:26:26;99623.00;;;0.44;100.00
54850;BME280;47660;51.334;12.396;2022-12-11T06:28:52;99622.13;;;0.44;100.00
54850;BME280;47660;51.334;12.396;2022-12-11T06:31:18;99621.88;;;0.52;100.00
54850;BME280;47660;51.334;12.396;2022-12-11T06:33:46;99626.03;;;0.32;100.00
54850;BME280;47660;51.334;12.396;2022-12-11T06:36:24;99620.28;;;0.73;100.00
54850;BME280;47660;51.334;12.396;2022-12-11T06:38:50;99612.22;;;0.54;100.00
54850;BME280;47660;51.334;12.396;2022-12-11T06:41:15;99619.44;;;0.47;100.00
54850;BME280;47660;51.334;12.396;2022-12-11T06:43:41;99615.50;;;0.34;100.00
54850;BME280;47660;51.334;12.396;2022-12-11T06:46:14;99620.88;;;0.56;100.00
54850;BME280;47660;51.334;12.396;2022-12-11T06:48:40;99622.91;;;0.48;100.00
54850;BME280;47660;51.334;12.396;2022-12-11T06:51:11;99625.19;;;0.57;100.00
54850;BME280;47660;51.334;12.396;2022-12-11T06:53:40;99630.31;;;0.60;100.00
54850;BME280;47660;51.334;12.396;2022-12-11T06:56:13;99626.56;;;0.69;100.00
54850;BME280;47660;51.334;12.396;2022-12-11T06:58:40;99632.94;;;0.60;100.00
54850;BME280;47660;51.334;12.396;2022-12-11T07:01:18;99633.38;;;0.48;100.00
54850;BME280;47660;51.334;12.396;2022-12-11T07:03:45;99634.31;;;0.45;100.00
54850;BME280;47660;51.334;12.396;2022-12-11T07:06:14;99636.41;;;0.61;100.00
54850;BME280;47660;51.334;12.396;2022-12-11T07:08:40;99640.03;;;0.56;100.00
54850;BME280;47660;51.334;12.396;2022-12-11T07:11:08;99642.38;;;0.64;100.00
54850;BME280;47660;51.334;12.396;2022-12-11T07:13:34;99637.34;;;0.58;100.00
54850;BME280;47660;51.334;12.396;2022-12-11T07:16:02;99635.41;;;0.38;100.00
54850;BME280;47660;51.334;12.396;2022-12-11T07:18:31;99634.28;;;0.47;100.00
54850;BME280;47660;51.334;12.396;2022-12-11T07:20:58;99636.13;;;0.43;100.00
54850;BME280;47660;51.334;12.396;2022-12-11T07:23:27;99647.97;;;0.53;100.00
54850;BME280;47660;51.334;12.396;2022-12-11T07:25:53;99650.63;;;0.52;100.00
54850;BME280;47660;51.334;12.396;2022-12-11T07:28:18;99651.53;;;0.51;100.00
54850;BME280;47660;51.334;12.396;2022-12-11T07:30:43;99644.47;;;0.54;100.00
54850;BME280;47660;51.334;12.396;2022-12-11T07:33:09;99659.25;;;0.55;100.00
54850;BME280;47660;51.334;12.396;2022-12-11T07:35:35;99655.31;;;0.69;100.00
54850;BME280;47660;51.334;12.396;2022-12-11T07:38:00;99656.47;;;0.60;100.00
54850;BME280;47660;51.334;12.396;2022-12-11T07:40:26;99655.94;;;0.76;100.00
54850;BME280;47660;51.334;12.396;2022-12-11T07:42:51;99652.31;;;0.54;100.00
54850;BME280;47660;51.334;12.396;2022-12-11T07:45:17;99654.50;;;0.40;100.00
54850;BME280;47660;51.334;12.396;2022-12-11T07:47:42;99657.03;;;0.70;100.00
54850;BME280;47660;51.334;12.396;2022-12-11T07:50:08;99653.13;;;0.56;100.00
54850;BME280;47660;51.334;12.396;2022-12-11T07:52:35;99654.03;;;0.55;100.00
54850;BME280;47660;51.334;12.396;2022-12-11T07:55:01;99656.06;;;0.72;100.00
54850;BME280;47660;51.334;12.396;2022-12-11T07:57:32;99653.72;;;0.65;100.00
54850;BME280;47660;51.334;12.396;2022-12-11T07:59:58;99650.50;;;0.56;100.00
54850;BME280;47660;51.334;12.396;2022-12-11T08:02:26;99656.44;;;0.62;100.00
54850;BME280;47660;51.334;12.396;2022-12-11T08:04:51;99663.28;;;0.66;100.00
54850;BME280;47660;51.334;12.396;2022-12-11T08:07:19;99651.13;;;0.63;100.00
54850;BME280;47660;51.334;12.396;2022-12-11T08:09:45;99657.47;;;0.83;100.00
54850;BME280;47660;51.334;12.396;2022-12-11T08:12:12;99653.78;;;0.36;100.00
54850;BME280;47660;51.334;12.396;2022-12-11T08:14:37;99656.47;;;0.60;100.00
54850;BME280;47660;51.334;12.396;2022-12-11T08:17:03;99647.31;;;0.73;100.00
54850;BME280;47660;51.334;12.396;2022-12-11T08:19:28;99650.50;;;0.82;100.00
54850;BME280;47660;51.334;12.396;2022-12-11T08:21:58;99649.53;;;0.84;100.00
54850;BME280;47660;51.334;12.396;2022-12-11T08:24:26;99655.94;;;0.76;100.00
54850;BME280;47660;51.334;12.396;2022-12-11T08:26:52;99652.75;;;0.67;100.00
54850;BME280;47660;51.334;12.396;2022-12-11T08:29:17;99656.16;;;0.95;100.00
54850;BME280;47660;51.334;12.396;2022-12-11T08:31:45;99654.63;;;0.89;100.00
54850;BME280;47660;51.334;12.396;2022-12-11T08:34:13;99647.84;;;0.83;100.00
54850;BME280;47660;51.334;12.396;2022-12-11T08:36:38;99643.06;;;0.96;100.00
54850;BME280;47660;51.334;12.396;2022-12-11T08:39:04;99652.97;;;0.86;100.00
54850;BME280;47660;51.334;12.396;2022-12-11T08:41:29;99650.34;;;0.61;100.00
54850;BME280;47660;51.334;12.396;2022-12-11T08:43:55;99644.38;;;1.08;100.00
54850;BME280;47660;51.334;12.396;2022-12-11T08:46:28;99648.38;;;0.93;100.00
54850;BME280;47660;51.334;12.396;2022-12-11T08:48:54;99650.56;;;0.80;100.00
54850;BME280;47660;51.334;12.396;2022-12-11T08:51:22;99650.72;;;1.01;100.00
54850;BME280;47660;51.334;12.396;2022-12-11T08:53:53;99656.38;;;0.88;100.00
54850;BME280;47660;51.334;12.396;2022-12-11T08:56:20;99658.84;;;0.68;100.00
54850;BME280;47660;51.334;12.396;2022-12-11T08:58:50;99656.25;;;0.93;100.00
54850;BME280;47660;51.334;12.396;2022-12-11T09:01:24;99662.94;;;1.00;100.00
54850;BME280;47660;51.334;12.396;2022-12-11T09:03:54;99663.03;;;0.97;100.00
54850;BME280;47660;51.334;12.396;2022-12-11T09:06:22;99662.53;;;0.87;100.00
54850;BME280;47660;51.334;12.396;2022-12-11T09:08:49;99661.09;;;1.04;100.00
54850;BME280;47660;51.334;12.396;2022-12-11T09:11:17;99660.28;;;1.02;100.00
54850;BME280;47660;51.334;12.396;2022-12-11T09:13:44;99664.00;;;0.69;100.00
54850;BME280;47660;51.334;12.396;2022-12-11T09:16:12;99660.22;;;0.78;100.00
54850;BME280;47660;51.334;12.396;2022-12-11T09:18:38;99658.34;;;1.07;100.00
54850;BME280;47660;51.334;12.396;2022-12-11T09:21:12;99652.13;;;1.11;100.00
54850;BME280;47660;51.334;12.396;2022-12-11T09:23:39;99660.41;;;1.23;100.00
54850;BME280;47660;51.334;12.396;2022-12-11T09:26:06;99650.66;;;1.02;100.00
54850;BME280;47660;51.334;12.396;2022-12-11T09:28:35;99658.56;;;1.26;100.00
54850;BME280;47660;51.334;12.396;2022-12-11T09:31:07;99662.38;;;1.41;100.00
54850;BME280;47660;51.334;12.396;2022-12-11T09:33:32;99654.34;;;1.22;100.00
54850;BME280;47660;51.334;12.396;2022-12-11T09:35:58;99654.00;;;1.31;100.00
54850;BME280;47660;51.334;12.396;2022-12-11T09:38:30;99652.34;;;1.29;100.00
54850;BME280;47660;51.334;12.396;2022-12-11T09:40:56;99650.00;;;1.21;100.00
54850;BME280;47660;51.334;12.396;2022-12-11T09:43:39;99652.72;;;0.69;100.00
54850;BME280;47660;51.334;12.396;2022-12-11T09:46:10;99655.94;;;0.76;100.00
54850;BME280;47660;51.334;12.396;2022-12-11T09:48:39;99631.53;;;0.75;100.00
54850;BME280;47660;51.334;12.396;2022-12-11T09:53:42;99642.59;;;0.83;100.00
54850;BME280;47660;51.334;12.396;2022-12-11T10:04:19;99628.50;;;0.62;100.00
54850;BME280;47660;51.334;12.396;2022-12-11T10:07:15;99634.47;;;1.40;100.00
54850;BME280;47660;51.334;12.396;2022-12-11T10:09:49;99628.66;;;1.56;100.00
54850;BME280;47660;51.334;12.396;2022-12-11T10:15:15;99634.25;;;1.46;100.00
54850;BME280;47660;51.334;12.396;2022-12-11T10:17:44;99630.94;;;1.41;100.00
54850;BME280;47660;51.334;12.396;2022-12-11T10:22:49;99622.41;;;1.36;100.00
54850;BME280;47660;51.334;12.396;2022-12-11T10:25:19;99627.38;;;1.44;100.00
54850;BME280;47660;51.334;12.396;2022-12-11T10:27:44;99629.69;;;1.28;100.00
54850;BME280;47660;51.334;12.396;2022-12-11T10:30:16;99633.50;;;1.19;100.00
54850;BME280;47660;51.334;12.396;2022-12-11T10:32:53;99628.03;;;1.25;100.00
54850;BME280;47660;51.334;12.396;2022-12-11T10:38:08;99625.13;;;1.09;100.00
54850;BME280;47660;51.334;12.396;2022-12-11T10:40:37;99626.84;;;1.34;100.00
54850;BME280;47660;51.334;12.396;2022-12-11T10:43:04;99628.59;;;1.10;100.00
54850;BME280;47660;51.334;12.396;2022-12-11T10:45:29;99621.78;;;1.29;100.00
54850;BME280;47660;51.334;12.396;2022-12-11T10:48:08;99618.72;;;1.42;100.00
54850;BME280;47660;51.334;12.396;2022-12-11T10:50:35;99626.22;;;1.27;100.00
54850;BME280;47660;51.334;12.396;2022-12-11T10:53:00;99624.13;;;1.37;100.00
54850;BME280;47660;51.334;12.396;2022-12-11T10:55:27;99615.06;;;1.46;100.00
54850;BME280;47660;51.334;12.396;2022-12-11T10:57:59;99615.41;;;1.13;100.00
54850;BME280;47660;51.334;12.396;2022-12-11T11:00:37;99608.47;;;1.36;100.00
54850;BME280;47660;51.334;12.396;2022-12-11T11:03:05;99605.44;;;1.46;100.00
54850;BME280;47660;51.334;12.396;2022-12-11T11:05:34;99604.78;;;1.63;100.00
54850;BME280;47660;51.334;12.396;2022-12-11T11:08:20;99600.38;;;0.94;100.00
54850;BME280;47660;51.334;12.396;2022-12-11T11:13:20;99592.03;;;1.08;100.00
54850;BME280;47660;51.334;12.396;2022-12-11T11:16:00;99599.94;;;1.30;100.00
54850;BME280;47660;51.334;12.396;2022-12-11T11:18:29;99594.41;;;1.84;100.00
54850;BME280;47660;51.334;12.396;2022-12-11T11:20:55;99593.53;;;1.61;100.00
54850;BME280;47660;51.334;12.396;2022-12-11T11:23:22;99586.38;;;1.19;100.00
54850;BME280;47660;51.334;12.396;2022-12-11T11:25:59;99580.50;;;1.36;100.00
54850;BME280;47660;51.334;12.396;2022-12-11T11:28:28;99585.78;;;1.12;100.00
54850;BME280;47660;51.334;12.396;2022-12-11T11:31:01;99588.22;;;1.17;100.00
54850;BME280;47660;51.334;12.396;2022-12-11T11:33:28;99586.66;;;3.07;100.00
54850;BME280;47660;51.334;12.396;2022-12-11T11:36:04;99587.72;;;4.16;100.00
54850;BME280;47660;51.334;12.396;2022-12-11T11:41:33;99577.72;;;3.68;100.00
54850;BME280;47660;51.334;12.396;2022-12-11T11:44:04;99578.91;;;3.80;100.00
54850;BME280;47660;51.334;12.396;2022-12-11T11:46:47;99579.53;;;3.85;100.00
54850;BME280;47660;51.334;12.396;2022-12-11T11:51:56;99569.78;;;1.88;100.00
54850;BME280;47660;51.334;12.396;2022-12-11T12:00:17;99559.44;;;1.63;100.00
54850;BME280;47660;51.334;12.396;2022-12-11T12:02:46;99559.91;;;1.51;100.00
54850;BME280;47660;51.334;12.396;2022-12-11T12:05:14;99566.25;;;1.67;100.00
54850;BME280;47660;51.334;12.396;2022-12-11T12:07:52;99562.38;;;0.84;100.00
54850;BME280;47660;51.334;12.396;2022-12-11T12:15:58;99558.25;;;1.70;100.00
54850;BME280;47660;51.334;12.396;2022-12-11T12:26:37;99551.84;;;1.77;100.00
54850;BME280;47660;51.334;12.396;2022-12-11T12:47:40;99537.94;;;1.31;100.00
54850;BME280;47660;51.334;12.396;2022-12-11T12:50:13;99543.69;;;1.41;100.00
54850;BME280;47660;51.334;12.396;2022-12-11T12:52:39;99544.59;;;1.17;100.00
54850;BME280;47660;51.334;12.396;2022-12-11T12:55:23;99539.03;;;1.25;100.00
54850;BME280;47660;51.334;12.396;2022-12-11T12:57:57;99530.41;;;1.23;100.00
54850;BME280;47660;51.334;12.396;2022-12-11T13:00:36;99531.44;;;1.41;100.00
54850;BME280;47660;51.334;12.396;2022-12-11T13:06:04;99518.38;;;0.95;100.00
54850;BME280;47660;51.334;12.396;2022-12-11T13:11:02;99522.06;;;1.13;100.00
54850;BME280;47660;51.334;12.396;2022-12-11T13:13:34;99513.75;;;1.02;100.00
54850;BME280;47660;51.334;12.396;2022-12-11T13:16:20;99517.31;;;0.99;100.00
54850;BME280;47660;51.334;12.396;2022-12-11T13:18:48;99523.66;;;0.19;100.00
54850;BME280;47660;51.334;12.396;2022-12-11T13:21:34;99521.94;;;0.18;100.00
54850;BME280;47660;51.334;12.396;2022-12-11T13:26:44;99521.69;;;0.75;100.00
54850;BME280;47660;51.334;12.396;2022-12-11T13:32:02;99526.53;;;0.37;100.00
54850;BME280;47660;51.334;12.396;2022-12-11T13:34:38;99525.47;;;0.42;100.00
54850;BME280;47660;51.334;12.396;2022-12-11T13:37:05;99529.13;;;0.37;100.00
54850;BME280;47660;51.334;12.396;2022-12-11T13:39:34;99521.13;;;0.91;100.00
54850;BME280;47660;51.334;12.396;2022-12-11T13:42:06;99526.75;;;1.03;100.00
54850;BME280;47660;51.334;12.396;2022-12-11T13:44:35;99532.75;;;1.07;100.00
54850;BME280;47660;51.334;12.396;2022-12-11T13:47:04;99528.81;;;1.19;100.00
54850;BME280;47660;51.334;12.396;2022-12-11T13:49:36;99523.75;;;1.14;100.00
54850;BME280;47660;51.334;12.396;2022-12-11T13:52:05;99519.81;;;1.02;100.00
54850;BME280;47660;51.334;12.396;2022-12-11T13:54:33;99518.81;;;1.29;100.00
54850;BME280;47660;51.334;12.396;2022-12-11T13:59:33;99528.00;;;1.17;100.00
54850;BME280;47660;51.334;12.396;2022-12-11T14:02:20;99529.75;;;1.40;100.00
54850;BME280;47660;51.334;12.396;2022-12-11T14:04:46;99519.69;;;1.29;100.00
54850;BME280;47660;51.334;12.396;2022-12-11T14:07:14;99532.91;;;1.26;100.00
54850;BME280;47660;51.334;12.396;2022-12-11T14:09:44;99529.16;;;0.86;100.00
54850;BME280;47660;51.334;12.396;2022-12-11T14:12:20;99530.75;;;1.14;100.00
54850;BME280;47660;51.334;12.396;2022-12-11T14:14:56;99540.88;;;1.23;100.00
54850;BME280;47660;51.334;12.396;2022-12-11T14:17:31;99547.03;;;0.73;100.00
54850;BME280;47660;51.334;12.396;2022-12-11T14:19:59;99552.16;;;0.00;100.00
54850;BME280;47660;51.334;12.396;2022-12-11T14:22:28;99542.34;;;-0.20;100.00
54850;BME280;47660;51.334;12.396;2022-12-11T14:24:55;99539.06;;;0.27;100.00
54850;BME280;47660;51.334;12.396;2022-12-11T14:27:25;99543.63;;;-0.05;100.00
54850;BME280;47660;51.334;12.396;2022-12-11T14:29:51;99545.91;;;0.31;100.00
54850;BME280;47660;51.334;12.396;2022-12-11T14:32:27;99529.53;;;0.75;100.00
54850;BME280;47660;51.334;12.396;2022-12-11T14:34:59;99532.72;;;0.34;100.00
54850;BME280;47660;51.334;12.396;2022-12-11T14:37:29;99532.16;;;0.75;100.00
54850;BME280;47660;51.334;12.396;2022-12-11T14:39:59;99536.53;;;0.74;100.00